Piercy, California
Current Conditions -  °F | °C
As of 2:15 PM on Wednesday 28 Jan 2015 (Local Time) from KFOT Reporting Station
Clear Clear  
Wind Chill: 59°   Ceiling: Unl
Heat Index: 59°   Visibility: 10mi
Dew Point: 50°   Wind: 10mph
Humidity: 72%   Direction: 300°WNW
Pressure: 30.25"   Gusts: NA
Location:  39.97°N, 123.8°W
Report Text: KFOT 282215Z AUTO 30009KT 10SM CLR 15/10 A3025 RMK AO1
Loading
Personal Weather Stations






























Interactive Weather Map New forecast layout! Learn more

10-Day Weather Forecast

Advertisements
Track Severe Weather on mobile